Corky — WDC3366 — position and weather

sailwx.info

Track history (hours):
 
Tides and Currents Weather Stations Pressure Air Temp Water Temp Dewpoint Dewpoint Depression Visibility Wind Speed Wind Dir Waves Ship Positions

Corky

Owner: Gulf South Marine Transportation, Inc., New Orleans, LA. More information available from US FCC via Universal Licensing System and Coast Guard Vessel Documentation Center.

Last reported at 2015-Mar-06 11:17 UTC. Time now 2015-Mar-06 20:11 UTC.
Position N 29°59' W 090°01'.

Length 18 m; draft 3.3 m.

Type: Tow > 200 m length. MMSI: 367006780.

Date/timePositionNaut miles runAvg speedWind from/ knotsBaromVisibWave heightAir tempDewpointWater temp
2015-Mar-06 11:17N 29°59' W 090°01'1 1.4
2015-Mar-06 10:24N 29°58' W 090°02'1 0.6
2015-Mar-06 09:27N 29°57' W 090°01'2 0.4
2015-Mar-06 04:23N 29°56' W 089°60'0 0.0
2015-Mar-06 01:24N 29°56' W 089°60'7 0.2
2015-Mar-04 06:33N 29°56' W 090°08'4 3.7
2015-Mar-04 05:33N 29°55' W 090°04'4 3.6
2015-Mar-04 04:31N 29°58' W 090°02'0 0.3
2015-Mar-04 03:30N 29°58' W 090°02'0 0.0
2015-Mar-04 02:33N 29°58' W 090°02'0 0.0
2015-Mar-04 01:30N 29°58' W 090°02'1 0.0
2015-Mar-02 18:19N 29°58' W 090°02'4 1.7
2015-Mar-02 16:08N 29°55' W 090°05'0 0.4
2015-Mar-02 15:27N 29°54' W 090°05'0 0.0
2015-Mar-02 14:25N 29°54' W 090°05'0 0.0
2015-Mar-02 13:34N 29°54' W 090°05'0 0.0
2015-Mar-02 12:32N 29°54' W 090°05'0 0.0
2015-Mar-02 11:28N 29°54' W 090°05'0 0.0
2015-Mar-02 10:29N 29°54' W 090°05'0 0.0
2015-Mar-02 09:32N 29°54' W 090°05'0 0.0
2015-Mar-02 08:33N 29°54' W 090°05'0 0.0
2015-Mar-02 07:32N 29°54' W 090°05'0 0.0
2015-Mar-02 06:33N 29°54' W 090°05'0 0.0
2015-Mar-02 05:33N 29°54' W 090°05'0 0.0
2015-Mar-02 04:32N 29°54' W 090°05'0 0.0
2015-Mar-01 15:25N 29°54' W 090°05'0 0.0
2015-Mar-01 14:15N 29°54' W 090°05'0 0.0
2015-Mar-01 12:29N 29°54' W 090°05'0 0.0
2015-Mar-01 11:24N 29°54' W 090°05'0 0.0
2015-Mar-01 10:17N 29°54' W 090°05'0 0.0
2015-Mar-01 09:31N 29°54' W 090°05'0 0.0
2015-Mar-01 08:30N 29°54' W 090°05'0 0.0
2015-Mar-01 07:32N 29°54' W 090°05'0 0.0
2015-Mar-01 06:33N 29°54' W 090°05'0 0.0
2015-Mar-01 05:32N 29°54' W 090°05'0 0.0
2015-Mar-01 04:33N 29°54' W 090°05'0 0.0
2015-Mar-01 03:33N 29°54' W 090°05'0 0.0
2015-Mar-01 02:31N 29°54' W 090°05'0 0.0
2015-Mar-01 01:33N 29°54' W 090°05'0 0.0
2015-Mar-01 00:31N 29°54' W 090°05'0 0.0
2015-Feb-28 23:33N 29°54' W 090°05'0 0.0
2015-Feb-28 10:06N 29°54' W 090°05'0 0.1
2015-Feb-28 08:28N 29°54' W 090°05'5 0.2
2015-Feb-27 03:03N 29°49' W 090°04'2 0.7
2015-Feb-27 00:04N 29°51' W 090°02'3 4.6
2015-Feb-26 23:25N 29°53' W 090°00'3 2.6
2015-Feb-26 22:25N 29°55' W 089°58'1 0.9
2015-Feb-26 21:29N 29°55' W 089°57'0 0.0
2015-Feb-26 20:30N 29°55' W 089°57'12 0.8
2015-Feb-26 06:25N 29°57' W 090°10'2 2.7
2015-Feb-26 05:32N 29°55' W 090°08'3 3.5
2015-Feb-26 04:33N 29°55' W 090°04'4 4.2
2015-Feb-26 03:32N 29°56' W 089°59'1 0.7
2015-Feb-26 01:31N 29°57' W 090°00'3 3.3
2015-Feb-26 00:31N 29°60' W 089°59'5 4.1
2015-Feb-25 23:22N 30°02' W 089°54'13 0.8
2015-Feb-25 07:24N 29°55' W 090°07'4 3.6
2015-Feb-25 06:24N 29°56' W 090°04'2 2.7
2015-Feb-25 05:30N 29°57' W 090°01'3 3.0
2015-Feb-25 04:33N 29°55' W 089°58'1 0.7
2015-Feb-25 03:20N 29°54' W 089°59'  
Track history (hours):
 
Tides and Currents Weather Stations Pressure Air Temp Water Temp Dewpoint Dewpoint Depression Visibility Wind Speed Wind Dir Waves Ship Positions

Corky

Owner: Gulf South Marine Transportation, Inc., New Orleans, LA. More information available from US FCC via Universal Licensing System and Coast Guard Vessel Documentation Center.

Last reported at 2015-Mar-06 11:17 UTC. Time now 2015-Mar-06 20:11 UTC.
Position N 29°59' W 090°01'.

Length 18 m; draft 3.3 m.

Type: Tow > 200 m length. MMSI: 367006780.

Date/timePositionNaut miles runAvg speedWind from/ knotsBaromVisibWave heightAir tempDewpointWater temp
2015-Mar-06 11:17N 29°59' W 090°01'1 1.4
2015-Mar-06 10:24N 29°58' W 090°02'1 0.6
2015-Mar-06 09:27N 29°57' W 090°01'2 0.4
2015-Mar-06 04:23N 29°56' W 089°60'0 0.0
2015-Mar-06 01:24N 29°56' W 089°60'7 0.2
2015-Mar-04 06:33N 29°56' W 090°08'4 3.7
2015-Mar-04 05:33N 29°55' W 090°04'4 3.6
2015-Mar-04 04:31N 29°58' W 090°02'0 0.3
2015-Mar-04 03:30N 29°58' W 090°02'0 0.0
2015-Mar-04 02:33N 29°58' W 090°02'0 0.0
2015-Mar-04 01:30N 29°58' W 090°02'1 0.0
2015-Mar-02 18:19N 29°58' W 090°02'4 1.7
2015-Mar-02 16:08N 29°55' W 090°05'0 0.4
2015-Mar-02 15:27N 29°54' W 090°05'0 0.0
2015-Mar-02 14:25N 29°54' W 090°05'0 0.0
2015-Mar-02 13:34N 29°54' W 090°05'0 0.0
2015-Mar-02 12:32N 29°54' W 090°05'0 0.0
2015-Mar-02 11:28N 29°54' W 090°05'0 0.0
2015-Mar-02 10:29N 29°54' W 090°05'0 0.0
2015-Mar-02 09:32N 29°54' W 090°05'0 0.0
2015-Mar-02 08:33N 29°54' W 090°05'0 0.0
2015-Mar-02 07:32N 29°54' W 090°05'0 0.0
2015-Mar-02 06:33N 29°54' W 090°05'0 0.0
2015-Mar-02 05:33N 29°54' W 090°05'0 0.0
2015-Mar-02 04:32N 29°54' W 090°05'0 0.0
2015-Mar-01 15:25N 29°54' W 090°05'0 0.0
2015-Mar-01 14:15N 29°54' W 090°05'0 0.0
2015-Mar-01 12:29N 29°54' W 090°05'0 0.0
2015-Mar-01 11:24N 29°54' W 090°05'0 0.0
2015-Mar-01 10:17N 29°54' W 090°05'0 0.0
2015-Mar-01 09:31N 29°54' W 090°05'0 0.0
2015-Mar-01 08:30N 29°54' W 090°05'0 0.0
2015-Mar-01 07:32N 29°54' W 090°05'0 0.0
2015-Mar-01 06:33N 29°54' W 090°05'0 0.0
2015-Mar-01 05:32N 29°54' W 090°05'0 0.0
2015-Mar-01 04:33N 29°54' W 090°05'0 0.0
2015-Mar-01 03:33N 29°54' W 090°05'0 0.0
2015-Mar-01 02:31N 29°54' W 090°05'0 0.0
2015-Mar-01 01:33N 29°54' W 090°05'0 0.0
2015-Mar-01 00:31N 29°54' W 090°05'0 0.0
2015-Feb-28 23:33N 29°54' W 090°05'0 0.0
2015-Feb-28 10:06N 29°54' W 090°05'0 0.1
2015-Feb-28 08:28N 29°54' W 090°05'5 0.2
2015-Feb-27 03:03N 29°49' W 090°04'2 0.7
2015-Feb-27 00:04N 29°51' W 090°02'3 4.6
2015-Feb-26 23:25N 29°53' W 090°00'3 2.6
2015-Feb-26 22:25N 29°55' W 089°58'1 0.9
2015-Feb-26 21:29N 29°55' W 089°57'0 0.0
2015-Feb-26 20:30N 29°55' W 089°57'12 0.8
2015-Feb-26 06:25N 29°57' W 090°10'2 2.7
2015-Feb-26 05:32N 29°55' W 090°08'3 3.5
2015-Feb-26 04:33N 29°55' W 090°04'4 4.2
2015-Feb-26 03:32N 29°56' W 089°59'1 0.7
2015-Feb-26 01:31N 29°57' W 090°00'3 3.3
2015-Feb-26 00:31N 29°60' W 089°59'5 4.1
2015-Feb-25 23:22N 30°02' W 089°54'13 0.8
2015-Feb-25 07:24N 29°55' W 090°07'4 3.6
2015-Feb-25 06:24N 29°56' W 090°04'2 2.7
2015-Feb-25 05:30N 29°57' W 090°01'3 3.0
2015-Feb-25 04:33N 29°55' W 089°58'1 0.7
2015-Feb-25 03:20N 29°54' W 089°59'  

Dump ship's entire track history